createdAt,value
2022-09-20T00:01:29.939Z,93754.44
2022-09-20T00:03:58.594Z,93745.31
2022-09-20T00:06:27.911Z,93754.81
2022-09-20T00:08:55.442Z,93760.06
2022-09-20T00:11:34.036Z,93747.25
2022-09-20T00:14:02.882Z,93757.09
2022-09-20T00:16:32.459Z,93754.81
2022-09-20T00:19:03.898Z,93746.00
2022-09-20T00:21:32.005Z,93749.28
2022-09-20T00:23:58.919Z,93749.16
2022-09-20T00:26:27.204Z,93748.19
2022-09-20T00:28:54.178Z,93739.50
2022-09-20T00:31:20.857Z,93724.94
2022-09-20T00:34:06.177Z,93741.94
2022-09-20T00:36:32.879Z,93731.03
2022-09-20T00:39:02.444Z,93710.63
2022-09-20T00:41:31.225Z,93728.59
2022-09-20T00:43:58.378Z,93719.53
2022-09-20T00:46:24.991Z,93731.19
2022-09-20T00:48:57.597Z,93725.28
2022-09-20T00:51:31.328Z,93731.03
2022-09-20T00:54:02.674Z,93724.44
2022-09-20T00:56:36.114Z,93706.84
2022-09-20T00:59:17.958Z,93711.13
2022-09-20T01:01:48.958Z,93732.16
2022-09-20T01:04:16.441Z,93713.91
2022-09-20T01:06:46.333Z,93735.78
2022-09-20T01:09:12.946Z,93708.13
2022-09-20T01:11:40.835Z,93731.66
2022-09-20T01:14:08.177Z,93727.06
2022-09-20T01:16:36.374Z,93712.09
2022-09-20T01:19:16.436Z,93736.09
2022-09-20T01:21:45.378Z,93729.19
2022-09-20T01:24:39.864Z,93737.41
2022-09-20T01:27:16.045Z,93734.94
2022-09-20T01:30:12.380Z,93739.72
2022-09-20T01:32:54.255Z,93737.06
2022-09-20T01:35:25.160Z,93728.84
2022-09-20T01:38:05.234Z,93733.41
2022-09-20T01:40:48.926Z,93730.13
2022-09-20T01:43:34.694Z,93732.59
2022-09-20T01:46:24.478Z,93711.13
2022-09-20T01:48:59.944Z,93738.88
2022-09-20T01:51:52.363Z,93737.38
2022-09-20T01:54:58.040Z,93734.44
2022-09-20T01:57:50.023Z,93727.38
2022-09-20T02:00:58.786Z,93724.91
2022-09-20T02:03:37.265Z,93725.53
2022-09-20T02:06:42.568Z,93730.78
2022-09-20T02:09:37.414Z,93731.63
2022-09-20T02:12:33.867Z,93714.38
2022-09-20T02:15:18.798Z,93730.16
2022-09-20T02:18:19.295Z,93730.69
2022-09-20T02:21:03.431Z,93725.84
2022-09-20T02:23:44.933Z,93732.59
2022-09-20T02:26:37.968Z,93732.66
2022-09-20T02:29:23.017Z,93725.44
2022-09-20T02:32:15.026Z,93729.91
2022-09-20T02:34:44.441Z,93731.38
2022-09-20T02:37:42.202Z,93726.41
2022-09-20T02:40:26.967Z,93719.63
2022-09-20T02:43:05.861Z,93723.75
2022-09-20T02:45:52.839Z,93715.19
2022-09-20T02:48:27.639Z,93707.25
2022-09-20T02:51:12.007Z,93722.97
2022-09-20T02:53:57.285Z,93725.03
2022-09-20T02:56:38.601Z,93706.66
2022-09-20T02:59:18.259Z,93709.72
2022-09-20T03:02:05.781Z,93726.94
2022-09-20T03:04:44.406Z,93741.41
2022-09-20T03:07:48.835Z,93717.84
2022-09-20T03:10:35.950Z,93733.38
2022-09-20T03:13:23.902Z,93746.66
2022-09-20T03:16:02.997Z,93749.75
2022-09-20T03:18:37.159Z,93753.78
2022-09-20T03:21:06.721Z,93748.00
2022-09-20T03:24:04.470Z,93756.84
2022-09-20T03:26:52.348Z,93753.75
2022-09-20T03:29:56.206Z,93755.09
2022-09-20T03:32:52.582Z,93754.75
2022-09-20T03:35:25.029Z,93748.53
2022-09-20T03:38:00.779Z,93757.19
2022-09-20T03:40:46.365Z,93756.47
2022-09-20T03:43:26.724Z,93764.28
2022-09-20T03:46:15.531Z,93757.63
2022-09-20T03:49:04.233Z,93759.88
2022-09-20T03:52:02.115Z,93762.59
2022-09-20T03:54:43.673Z,93762.13
2022-09-20T03:57:13.238Z,93767.94
2022-09-20T04:00:11.859Z,93748.47
2022-09-20T04:03:00.649Z,93757.19
2022-09-20T04:05:41.704Z,93749.59
2022-09-20T04:08:21.370Z,93771.59
2022-09-20T04:11:11.505Z,93771.69
2022-09-20T04:13:44.110Z,93771.13
2022-09-20T04:16:23.247Z,93749.28
2022-09-20T04:18:56.938Z,93745.75
2022-09-20T04:21:37.815Z,93769.28
2022-09-20T04:24:36.606Z,93763.78
2022-09-20T04:27:12.972Z,93766.34
2022-09-20T04:30:00.742Z,93743.06
2022-09-20T04:32:42.298Z,93759.09
2022-09-20T04:36:04.333Z,93769.53
2022-09-20T04:38:31.445Z,93766.19
2022-09-20T04:41:06.793Z,93769.75
2022-09-20T04:44:04.858Z,93776.91
2022-09-20T04:46:56.427Z,93779.28
2022-09-20T04:49:33.648Z,93782.28
2022-09-20T04:52:04.133Z,93777.63
2022-09-20T04:54:59.873Z,93783.31
2022-09-20T04:58:04.707Z,93780.94
2022-09-20T05:00:53.404Z,93760.44
2022-09-20T05:03:40.302Z,93776.16
2022-09-20T05:06:30.655Z,93755.72
2022-09-20T05:09:13.572Z,93787.00
2022-09-20T05:11:59.004Z,93783.63
2022-09-20T05:14:41.740Z,93784.53
2022-09-20T05:17:37.204Z,93791.78
2022-09-20T05:21:05.341Z,93792.63
2022-09-20T05:23:40.001Z,93795.38
2022-09-20T05:26:44.101Z,93798.75
2022-09-20T05:29:19.449Z,93802.28
2022-09-20T05:32:02.029Z,93770.44
2022-09-20T05:34:42.361Z,93807.59
2022-09-20T05:37:24.194Z,93812.56
2022-09-20T05:40:18.561Z,93807.31
2022-09-20T05:42:52.299Z,93810.78
2022-09-20T05:45:44.036Z,93816.41
2022-09-20T05:48:15.967Z,93808.88
2022-09-20T05:51:06.598Z,93813.56
2022-09-20T05:53:50.902Z,93808.38
2022-09-20T05:56:38.838Z,93812.66
2022-09-20T05:59:25.877Z,93812.66
2022-09-20T06:02:22.282Z,93821.00
2022-09-20T06:05:10.571Z,93816.56
2022-09-20T06:07:56.560Z,93815.00
2022-09-20T06:10:43.462Z,93831.41
2022-09-20T06:13:47.591Z,93821.28
2022-09-20T06:16:31.442Z,93820.66
2022-09-20T06:19:16.786Z,93819.72
2022-09-20T06:21:52.106Z,93813.41
2022-09-20T06:24:43.685Z,93818.22
2022-09-20T06:27:32.414Z,93819.88
2022-09-20T06:30:05.774Z,93813.13
2022-09-20T06:32:34.219Z,93805.72
2022-09-20T06:35:03.470Z,93822.19
2022-09-20T06:38:11.745Z,93822.88
2022-09-20T06:41:08.843Z,93816.84
2022-09-20T06:43:40.361Z,93820.47
2022-09-20T06:46:07.771Z,93810.09
2022-09-20T06:48:34.418Z,93799.75
2022-09-20T06:51:01.698Z,93801.41
2022-09-20T06:53:32.553Z,93802.22
2022-09-20T06:56:00.733Z,93770.97
2022-09-20T06:58:28.211Z,93791.34
2022-09-20T07:00:54.898Z,93795.28
2022-09-20T07:03:21.565Z,93801.50
2022-09-20T07:05:48.254Z,93737.19
2022-09-20T07:08:16.537Z,93799.16
2022-09-20T07:10:43.933Z,93779.16
2022-09-20T07:13:13.354Z,93796.88
2022-09-20T07:15:40.029Z,93792.56
2022-09-20T07:18:07.809Z,93792.41
2022-09-20T07:20:34.946Z,93771.16
2022-09-20T07:23:02.572Z,93795.25
2022-09-20T07:25:30.625Z,93793.19
2022-09-20T07:27:57.688Z,93791.63
2022-09-20T07:30:24.475Z,93795.50
2022-09-20T07:32:51.051Z,93794.69
2022-09-20T07:35:18.006Z,93789.38
2022-09-20T07:37:44.722Z,93798.00
2022-09-20T07:40:11.865Z,93785.31
2022-09-20T07:42:38.920Z,93782.00
2022-09-20T07:45:06.966Z,93786.75
2022-09-20T07:47:35.258Z,93779.41
2022-09-20T07:50:02.787Z,93769.75
2022-09-20T07:52:29.524Z,93777.59
2022-09-20T07:54:56.283Z,93784.34
2022-09-20T07:57:23.247Z,93778.91
2022-09-20T07:59:49.853Z,93789.66
2022-09-20T08:02:16.941Z,93784.81
2022-09-20T08:04:43.858Z,93758.56
2022-09-20T08:07:10.970Z,93778.88
2022-09-20T08:09:37.669Z,93766.28
2022-09-20T08:14:52.489Z,93787.16
2022-09-20T08:17:19.509Z,93776.47
2022-09-20T08:19:46.298Z,93784.38
2022-09-20T08:22:13.244Z,93780.81
2022-09-20T08:24:39.959Z,93768.91
2022-09-20T08:27:06.520Z,93772.16
2022-09-20T08:29:33.144Z,93781.97
2022-09-20T08:32:01.446Z,93764.94
2022-09-20T08:34:28.242Z,93757.44
2022-09-20T08:36:56.477Z,93752.94
2022-09-20T08:42:14.123Z,93779.09
2022-09-20T08:45:00.020Z,93711.38
2022-09-20T08:47:31.044Z,93773.69
2022-09-20T08:49:59.092Z,93775.59
2022-09-20T08:52:35.892Z,93774.41
2022-09-20T08:55:13.394Z,93766.81
2022-09-20T08:57:40.015Z,93748.66
2022-09-20T09:00:07.439Z,93761.91
2022-09-20T09:02:34.373Z,93764.63
2022-09-20T09:05:03.066Z,93761.13
2022-09-20T09:07:30.665Z,93744.19
2022-09-20T09:09:57.279Z,93744.28
2022-09-20T09:12:34.266Z,93757.56
2022-09-20T09:15:17.597Z,93753.41
2022-09-20T09:17:44.421Z,93742.53
2022-09-20T09:20:22.712Z,93761.84
2022-09-20T09:23:06.814Z,93746.22
2022-09-20T09:25:38.301Z,93756.50
2022-09-20T09:28:07.718Z,93754.06
2022-09-20T09:30:47.706Z,93751.69
2022-09-20T09:33:17.209Z,93757.06
2022-09-20T09:35:52.986Z,93745.97
2022-09-20T09:38:24.096Z,93728.41
2022-09-20T09:40:54.474Z,93733.97
2022-09-20T09:43:26.879Z,93735.97
2022-09-20T09:45:53.959Z,93729.66
2022-09-20T09:48:25.713Z,93726.63
2022-09-20T09:51:15.260Z,93724.34
2022-09-20T09:53:43.308Z,93731.31
2022-09-20T09:56:21.962Z,93716.97
2022-09-20T09:59:02.258Z,93720.25
2022-09-20T10:01:33.538Z,93720.66
2022-09-20T10:04:27.066Z,93728.38
2022-09-20T10:07:18.590Z,93720.03
2022-09-20T10:10:15.509Z,93725.31
2022-09-20T10:12:57.033Z,93720.63
2022-09-20T10:15:42.008Z,93716.53
2022-09-20T10:18:43.904Z,93719.56
2022-09-20T10:21:37.013Z,93712.38
2022-09-20T10:24:18.835Z,93711.47
2022-09-20T10:26:54.663Z,93694.53
2022-09-20T10:29:30.242Z,93709.41
2022-09-20T10:31:57.267Z,93711.72
2022-09-20T10:34:59.318Z,93710.84
2022-09-20T10:37:49.381Z,93689.25
2022-09-20T10:40:16.934Z,93702.44
2022-09-20T10:43:09.906Z,93705.72
2022-09-20T10:46:14.539Z,93706.06
2022-09-20T10:48:48.535Z,93701.63
2022-09-20T10:51:39.269Z,93696.00
2022-09-20T10:54:08.882Z,93701.03
2022-09-20T10:56:47.050Z,93696.66
2022-09-20T10:59:35.464Z,93697.75
2022-09-20T11:02:02.010Z,93690.22
2022-09-20T11:04:48.066Z,93699.00
2022-09-20T11:07:24.490Z,93692.09
2022-09-20T11:09:59.631Z,93684.84
2022-09-20T11:12:38.176Z,93685.41
2022-09-20T11:15:34.994Z,93689.34
2022-09-20T11:18:13.394Z,93681.59
2022-09-20T11:20:49.108Z,93659.41
2022-09-20T11:23:25.160Z,93689.69
2022-09-20T11:25:56.793Z,93685.44
2022-09-20T11:29:12.405Z,93687.06
2022-09-20T11:31:44.036Z,93685.53
2022-09-20T11:34:14.952Z,93685.94
2022-09-20T11:37:03.070Z,93681.59
2022-09-20T11:39:46.189Z,93693.25
2022-09-20T11:42:20.235Z,93682.16
2022-09-20T11:44:47.163Z,93676.25
2022-09-20T11:47:49.816Z,93674.72
2022-09-20T11:50:44.284Z,93687.53
2022-09-20T11:53:25.924Z,93680.72
2022-09-20T11:56:05.116Z,93678.34
2022-09-20T11:58:33.062Z,93682.44
2022-09-20T12:00:59.980Z,93681.06
2022-09-20T12:03:37.382Z,93672.19
2022-09-20T12:06:21.004Z,93649.50
2022-09-20T12:08:51.177Z,93675.03
2022-09-20T12:11:29.726Z,93671.44
2022-09-20T12:14:01.475Z,93671.03
2022-09-20T12:16:43.512Z,93667.13
2022-09-20T12:19:21.394Z,93668.06
2022-09-20T12:22:14.295Z,93664.66
2022-09-20T12:24:45.106Z,93662.50
2022-09-20T12:27:29.146Z,93662.78
2022-09-20T12:30:20.789Z,93664.69
2022-09-20T12:32:54.030Z,93645.66
2022-09-20T12:35:35.626Z,93648.50
2022-09-20T12:38:25.729Z,93626.72
2022-09-20T12:41:12.893Z,93654.41
2022-09-20T12:44:00.238Z,93639.44
2022-09-20T12:46:33.673Z,93641.59
2022-09-20T12:49:38.194Z,93634.03
2022-09-20T12:52:23.354Z,93637.16
2022-09-20T12:54:56.378Z,93629.06
2022-09-20T12:57:32.105Z,93640.53
2022-09-20T13:00:01.824Z,93637.09
2022-09-20T13:02:57.395Z,93645.78
2022-09-20T13:05:33.405Z,93623.72
2022-09-20T13:08:17.810Z,93629.16
2022-09-20T13:11:00.806Z,93633.78
2022-09-20T13:13:57.499Z,93617.63
2022-09-20T13:16:31.022Z,93618.97
2022-09-20T13:19:08.078Z,93637.19
2022-09-20T13:21:38.022Z,93630.28
2022-09-20T13:24:05.938Z,93648.09
2022-09-20T13:26:53.048Z,93654.44
2022-09-20T13:29:30.420Z,93653.03
2022-09-20T13:32:22.515Z,93642.16
2022-09-20T13:35:29.350Z,93645.94
2022-09-20T13:37:58.834Z,93639.97
2022-09-20T13:40:33.523Z,93628.09
2022-09-20T13:43:23.061Z,93645.81
2022-09-20T13:45:56.306Z,93641.63
2022-09-20T13:48:29.813Z,93635.63
2022-09-20T13:50:57.320Z,93633.81
2022-09-20T13:53:41.429Z,93646.47
2022-09-20T13:56:23.165Z,93645.53
2022-09-20T13:58:51.344Z,93633.78
2022-09-20T14:01:35.442Z,93643.81
2022-09-20T14:04:17.511Z,93644.56
2022-09-20T14:06:45.272Z,93653.16
2022-09-20T14:09:23.551Z,93639.59
2022-09-20T14:11:50.897Z,93646.19
2022-09-20T14:14:22.143Z,93644.13
2022-09-20T14:16:50.175Z,93639.69
2022-09-20T14:19:20.192Z,93622.97
2022-09-20T14:21:48.418Z,93649.53
2022-09-20T14:24:14.972Z,93654.53
2022-09-20T14:26:59.193Z,93657.38
2022-09-20T14:29:40.735Z,93629.13
2022-09-20T14:32:19.382Z,93650.81
2022-09-20T14:34:51.554Z,93659.50
2022-09-20T14:37:31.358Z,93638.50
2022-09-20T14:40:00.972Z,93635.91
2022-09-20T14:42:27.547Z,93662.31
2022-09-20T14:44:54.643Z,93633.09
2022-09-20T14:47:36.468Z,93645.41
2022-09-20T14:50:05.258Z,93655.78
2022-09-20T14:52:37.182Z,93644.16
2022-09-20T14:55:19.762Z,93653.47
2022-09-20T14:57:47.588Z,93650.44
2022-09-20T15:00:16.865Z,93664.25
2022-09-20T15:02:45.400Z,93662.25
2022-09-20T15:05:21.552Z,93656.22
2022-09-20T15:07:48.133Z,93643.50
2022-09-20T15:10:15.262Z,93654.97
2022-09-20T15:12:42.308Z,93665.19
2022-09-20T15:15:14.949Z,93664.81
2022-09-20T15:17:42.524Z,93663.72
2022-09-20T15:20:23.762Z,93660.22
2022-09-20T15:22:50.721Z,93665.25
2022-09-20T15:25:20.772Z,93663.00
2022-09-20T15:27:49.339Z,93665.44
2022-09-20T15:30:19.530Z,93667.88
2022-09-20T15:32:47.028Z,93655.84
2022-09-20T15:35:14.544Z,93671.88
2022-09-20T15:37:41.752Z,93659.22
2022-09-20T15:40:09.311Z,93668.41
2022-09-20T15:42:37.897Z,93680.53
2022-09-20T15:45:08.886Z,93673.41
2022-09-20T15:47:39.212Z,93676.56
2022-09-20T15:50:08.565Z,93679.22
2022-09-20T15:52:39.790Z,93668.09
2022-09-20T15:55:07.377Z,93687.66
2022-09-20T15:57:34.918Z,93670.66
2022-09-20T16:00:01.732Z,93680.06
2022-09-20T16:02:29.238Z,93683.22
2022-09-20T16:04:55.891Z,93672.47
2022-09-20T16:07:26.301Z,93695.16
2022-09-20T16:09:54.637Z,93693.16
2022-09-20T16:12:22.884Z,93688.66
2022-09-20T16:14:50.019Z,93698.13
2022-09-20T16:17:17.695Z,93694.03
2022-09-20T16:19:48.530Z,93692.44
2022-09-20T16:22:15.983Z,93694.06
2022-09-20T16:24:42.557Z,93675.25
2022-09-20T16:27:09.903Z,93688.34
2022-09-20T16:29:36.693Z,93681.81
2022-09-20T16:32:03.825Z,93694.47
2022-09-20T16:34:33.717Z,93698.56
2022-09-20T16:37:07.448Z,93704.28
2022-09-20T16:39:34.634Z,93689.97
2022-09-20T16:42:06.060Z,93715.72
2022-09-20T16:44:34.406Z,93711.88
2022-09-20T16:47:01.218Z,93712.03
2022-09-20T16:49:28.729Z,93713.31
2022-09-20T16:51:55.553Z,93711.63
2022-09-20T16:54:22.216Z,93725.44
2022-09-20T16:56:50.662Z,93729.19
2022-09-20T16:59:21.301Z,93728.69
2022-09-20T17:01:49.686Z,93737.59
2022-09-20T17:04:21.112Z,93743.56
2022-09-20T17:06:49.150Z,93731.09
2022-09-20T17:09:16.536Z,93719.06
2022-09-20T17:11:45.853Z,93747.63
2022-09-20T17:14:13.923Z,93752.91
2022-09-20T17:16:41.978Z,93754.44
2022-09-20T17:19:11.018Z,93759.34
2022-09-20T17:21:40.056Z,93763.31
2022-09-20T17:24:07.361Z,93760.88
2022-09-20T17:26:40.200Z,93762.63
2022-09-20T17:29:10.215Z,93770.38
2022-09-20T17:31:39.311Z,93775.75
2022-09-20T17:34:09.661Z,93751.84
2022-09-20T17:36:46.957Z,93783.22
2022-09-20T17:39:15.623Z,93786.28
2022-09-20T17:41:44.802Z,93780.72
2022-09-20T17:44:12.138Z,93776.16
2022-09-20T17:46:43.871Z,93797.06
2022-09-20T17:49:12.849Z,93799.97
2022-09-20T17:51:45.112Z,93796.34
2022-09-20T17:54:15.476Z,93797.75
2022-09-20T17:56:47.266Z,93810.66
2022-09-20T17:59:18.198Z,93810.75
2022-09-20T18:01:47.202Z,93821.06
2022-09-20T18:04:13.889Z,93825.78
2022-09-20T18:06:44.991Z,93829.25
2022-09-20T18:09:15.286Z,93821.41
2022-09-20T18:11:45.306Z,93835.44
2022-09-20T18:14:15.414Z,93827.53
2022-09-20T18:16:44.183Z,93835.16
2022-09-20T18:19:11.103Z,93840.28
2022-09-20T18:21:39.345Z,93839.72
2022-09-20T18:24:07.054Z,93831.81
2022-09-20T18:26:34.567Z,93832.81
2022-09-20T18:29:17.657Z,93839.19
2022-09-20T18:31:54.199Z,93833.66
2022-09-20T18:34:22.812Z,93844.31
2022-09-20T18:36:55.114Z,93858.25
2022-09-20T18:39:24.089Z,93853.78
2022-09-20T18:41:53.103Z,93859.44
2022-09-20T18:44:20.842Z,93835.53
2022-09-20T18:46:47.882Z,93841.38
2022-09-20T18:49:16.693Z,93857.16
2022-09-20T18:51:44.512Z,93852.88
2022-09-20T18:54:12.179Z,93859.34
2022-09-20T18:56:46.167Z,93858.22
2022-09-20T18:59:22.018Z,93867.25
2022-09-20T19:01:48.753Z,93866.34
2022-09-20T19:04:52.343Z,93866.16
2022-09-20T19:07:27.991Z,93861.72
2022-09-20T19:10:06.306Z,93865.22
2022-09-20T19:13:11.987Z,93869.28
2022-09-20T19:15:44.698Z,93879.75
2022-09-20T19:18:29.922Z,93875.84
2022-09-20T19:21:02.949Z,93876.56
2022-09-20T19:24:22.374Z,93868.91
2022-09-20T19:26:49.466Z,93869.34
2022-09-20T19:29:22.077Z,93872.31
2022-09-20T19:31:50.681Z,93867.72
2022-09-20T19:34:24.694Z,93875.50
2022-09-20T19:37:05.989Z,93863.88
2022-09-20T19:39:47.912Z,93868.34
2022-09-20T19:42:29.150Z,93843.59
2022-09-20T19:45:02.027Z,93863.88
2022-09-20T19:47:34.521Z,93873.25
2022-09-20T19:50:16.087Z,93873.88
2022-09-20T19:52:44.181Z,93863.34
2022-09-20T19:55:13.370Z,93870.06
2022-09-20T19:57:46.862Z,93859.31
2022-09-20T20:00:19.471Z,93870.91
2022-09-20T20:02:46.279Z,93871.41
2022-09-20T20:05:15.277Z,93869.53
2022-09-20T20:08:12.516Z,93876.63
2022-09-20T20:11:03.135Z,93867.97
2022-09-20T20:14:04.542Z,93868.78
2022-09-20T20:16:53.758Z,93875.75
2022-09-20T20:19:57.582Z,93872.47
2022-09-20T20:22:39.677Z,93875.44
2022-09-20T20:25:21.314Z,93865.44
2022-09-20T20:27:48.024Z,93873.00
2022-09-20T20:30:14.736Z,93864.44
2022-09-20T20:32:41.534Z,93863.19
2022-09-20T20:35:08.577Z,93850.78
2022-09-20T20:37:35.133Z,93868.63
2022-09-20T20:40:02.479Z,93862.97
2022-09-20T20:42:29.023Z,93854.28
2022-09-20T20:44:55.603Z,93863.91
2022-09-20T20:47:23.002Z,93864.44
2022-09-20T20:49:53.335Z,93845.22
2022-09-20T20:52:19.893Z,93863.59
2022-09-20T20:54:46.439Z,93839.06
2022-09-20T20:57:13.096Z,93864.72
2022-09-20T20:59:39.650Z,93876.31
2022-09-20T21:02:08.116Z,93873.22
2022-09-20T21:04:35.274Z,93850.03
2022-09-20T21:07:01.905Z,93859.56
2022-09-20T21:09:28.520Z,93859.88
2022-09-20T21:11:55.140Z,93863.06
2022-09-20T21:14:21.728Z,93846.09
2022-09-20T21:16:48.600Z,93843.66
2022-09-20T21:19:16.393Z,93845.56
2022-09-20T21:21:47.884Z,93858.16
2022-09-20T21:24:17.207Z,93855.59
2022-09-20T21:26:44.417Z,93864.38
2022-09-20T21:29:12.254Z,93857.53
2022-09-20T21:31:40.845Z,93852.16
2022-09-20T21:34:08.934Z,93851.41
2022-09-20T21:36:37.413Z,93864.72
2022-09-20T21:39:05.591Z,93867.81
2022-09-20T21:41:35.556Z,93866.38
2022-09-20T21:44:04.672Z,93862.75
2022-09-20T21:46:34.268Z,93863.00
2022-09-20T21:49:06.560Z,93867.53
2022-09-20T21:51:35.545Z,93869.19
2022-09-20T21:54:02.532Z,93864.34
2022-09-20T21:56:35.059Z,93847.59
2022-09-20T21:59:03.918Z,93859.38
2022-09-20T22:01:34.555Z,93853.34
2022-09-20T22:04:05.482Z,93847.78
2022-09-20T22:06:38.340Z,93849.50
2022-09-20T22:09:08.352Z,93852.03
2022-09-20T22:11:40.757Z,93838.59
2022-09-20T22:14:08.850Z,93847.78
2022-09-20T22:16:37.863Z,93842.13
2022-09-20T22:19:06.876Z,93829.94
2022-09-20T22:21:36.770Z,93841.66
2022-09-20T22:24:06.892Z,93832.50
2022-09-20T22:26:39.219Z,93837.19
2022-09-20T22:29:06.518Z,93823.19
2022-09-20T22:31:35.771Z,93823.75
2022-09-20T22:34:05.773Z,93834.19
2022-09-20T22:36:38.098Z,93829.63
2022-09-20T22:39:09.955Z,93829.00
2022-09-20T22:41:37.790Z,93794.41
2022-09-20T22:44:05.398Z,93834.28
2022-09-20T22:46:32.981Z,93814.84
2022-09-20T22:49:00.338Z,93805.63
2022-09-20T22:51:33.170Z,93818.28
2022-09-20T22:54:00.870Z,93804.78
2022-09-20T22:56:29.562Z,93821.50
2022-09-20T22:58:57.281Z,93825.56
2022-09-20T23:01:32.788Z,93821.00
2022-09-20T23:04:04.366Z,93797.03
2022-09-20T23:06:39.934Z,93792.75
2022-09-20T23:09:12.268Z,93818.56
2022-09-20T23:11:41.898Z,93815.28
2022-09-20T23:14:11.577Z,93809.91
2022-09-20T23:16:39.834Z,93809.44
2022-09-20T23:19:07.809Z,93818.19
2022-09-20T23:21:36.392Z,93797.28
2022-09-20T23:24:05.595Z,93815.81
2022-09-20T23:26:33.836Z,93808.91
2022-09-20T23:29:06.887Z,93810.16
2022-09-20T23:31:36.443Z,93809.53
2022-09-20T23:34:05.267Z,93806.50
2022-09-20T23:36:34.191Z,93804.22
2022-09-20T23:39:00.921Z,93800.56
2022-09-20T23:41:28.274Z,93800.03
2022-09-20T23:43:55.146Z,93801.50
2022-09-20T23:46:24.296Z,93796.81
2022-09-20T23:48:51.132Z,93796.94
2022-09-20T23:51:20.892Z,93807.44
2022-09-20T23:53:47.539Z,93805.09
2022-09-20T23:56:14.536Z,93805.88
2022-09-20T23:58:43.010Z,93799.25
